Time;durP1;ratioP1;P1;durP2;ratioP2;P2;SDS_P1;SDS_P2;PMS_P1;PMS_P2;Temp;Humidity;BMP_temperature;BMP_pressure;BME280_temperature;BME280_humidity;BME280_pressure;Samples;Min_cycle;Max_cycle;Signal;HPM_P1;HPM_P2
2021/01/23 08:56:15;;;;;;;36.90;20.55;;;;;;;1.93;81.63;98890.94;1776646;79;22367;-70
2021/01/23 08:58:43;;;;;;;28.55;17.80;;;;;;;2.10;81.31;98894.88;1741211;82;21582;-70
2021/01/23 09:01:11;;;;;;;30.10;17.37;;;;;;;2.54;79.76;98891.42;1740706;82;21646;-70
2021/01/23 09:03:39;;;;;;;33.02;18.75;;;;;;;2.76;79.25;98893.33;1737591;82;21174;-71
2021/01/23 09:06:07;;;;;;;26.90;17.05;;;;;;;2.86;79.13;98891.53;1723081;82;21685;-70
2021/01/23 09:08:36;;;;;;;31.12;17.82;;;;;;;2.98;78.88;98893.95;1728720;82;21151;-70
2021/01/23 09:11:04;;;;;;;30.55;18.27;;;;;;;3.22;78.19;98886.57;1724390;82;21167;-71
2021/01/23 09:13:32;;;;;;;29.98;17.87;;;;;;;3.50;76.66;98887.69;1723199;83;21171;-70
2021/01/23 09:15:59;;;;;;;33.40;19.27;;;;;;;3.57;76.27;98872.05;1725160;82;21151;-70
2021/01/23 09:18:26;;;;;;;29.67;17.17;;;;;;;3.61;76.00;98880.10;1723288;82;21143;-71
2021/01/23 09:20:55;;;;;;;31.77;17.67;;;;;;;3.68;75.41;98879.28;1738056;82;21159;-70
2021/01/23 09:23:23;;;;;;;32.05;18.17;;;;;;;3.90;74.90;98879.77;1734427;81;21646;-71
2021/01/23 09:25:50;;;;;;;31.45;18.57;;;;;;;3.99;74.47;98873.17;1747595;82;21139;-71
2021/01/23 09:28:17;;;;;;;30.45;19.35;;;;;;;4.01;74.06;98868.68;1734972;82;21174;-71
2021/01/23 09:30:44;;;;;;;31.48;18.27;;;;;;;4.03;73.76;98872.06;1748674;82;21099;-71
2021/01/23 09:33:12;;;;;;;31.10;19.77;;;;;;;4.10;73.63;98866.86;1716963;83;21208;-70
2021/01/23 09:35:41;;;;;;;32.75;20.62;;;;;;;4.32;72.39;98870.81;1708771;84;21200;-71
2021/01/23 09:38:08;;;;;;;36.95;19.55;;;;;;;4.34;72.29;98862.90;1714369;83;21138;-71
2021/01/23 09:40:35;;;;;;;28.05;18.35;;;;;;;4.32;71.90;98873.91;1716619;83;21580;-71
2021/01/23 09:43:03;;;;;;;30.57;19.07;;;;;;;4.29;72.07;98872.32;1715877;83;21600;-71
2021/01/23 09:45:31;;;;;;;30.75;17.37;;;;;;;4.32;71.72;98866.89;1708684;84;22213;-71
2021/01/23 09:47:58;;;;;;;26.68;17.40;;;;;;;4.51;71.35;98865.81;1712458;83;21155;-70
2021/01/23 09:50:27;;;;;;;30.62;20.17;;;;;;;4.59;71.05;98870.98;1715772;83;21194;-70
2021/01/23 09:52:55;;;;;;;26.60;17.55;;;;;;;4.58;71.15;98869.29;1706884;83;21200;-71
2021/01/23 09:55:22;;;;;;;30.35;19.60;;;;;;;4.63;71.00;98874.27;1702013;84;21232;-71
2021/01/23 09:57:50;;;;;;;28.87;17.48;;;;;;;4.66;70.91;98868.83;1700975;84;21607;-71
2021/01/23 10:00:18;;;;;;;27.87;16.15;;;;;;;4.81;70.46;98868.83;1697598;83;21173;-71
2021/01/23 10:31:30;;;;;;;30.85;17.42;;;;;;;5.09;68.28;98863.59;1702575;84;21607;-70
2021/01/23 10:33:58;;;;;;;29.27;17.10;;;;;;;5.29;67.97;98852.32;1667830;86;21632;-85
2021/01/23 10:36:25;;;;;;;31.33;19.05;;;;;;;5.27;67.58;98849.42;1692616;84;21139;-87
2021/01/23 10:38:52;;;;;;;33.65;21.00;;;;;;;5.19;67.76;98845.97;1692076;84;21191;-86
2021/01/23 10:41:20;;;;;;;32.35;19.65;;;;;;;5.20;68.00;98850.28;1706721;84;21125;-86
2021/01/23 10:43:47;;;;;;;31.27;20.12;;;;;;;5.18;67.28;98850.84;1698073;84;21183;-86
2021/01/23 10:46:14;;;;;;;27.87;18.57;;;;;;;5.21;67.48;98854.11;1688369;85;21536;-87
2021/01/23 10:48:43;;;;;;;30.20;18.55;;;;;;;5.30;67.38;98847.45;1677220;84;21179;-87
2021/01/23 10:51:10;;;;;;;27.67;17.40;;;;;;;5.31;67.36;98856.19;1700745;83;21178;-86
2021/01/23 10:53:38;;;;;;;29.12;19.10;;;;;;;5.31;67.33;98857.49;1697417;83;22194;-86
2021/01/23 10:56:05;;;;;;;32.60;19.10;;;;;;;5.22;66.57;98847.11;1689713;83;21171;-86
2021/01/23 10:58:34;;;;;;;34.67;18.87;;;;;;;5.11;66.94;98846.94;1715405;83;21300;-86
2021/01/23 11:01:01;;;;;;;33.73;22.07;;;;;;;5.14;67.35;98838.87;1700781;83;21173;-87
2021/01/23 11:03:29;;;;;;;31.12;19.25;;;;;;;5.27;66.88;98831.94;1689491;84;21155;-85
2021/01/23 11:05:57;;;;;;;30.95;19.05;;;;;;;5.25;67.33;98825.45;1697417;83;21135;-85
2021/01/23 11:08:25;;;;;;;30.97;18.65;;;;;;;5.24;67.30;98819.00;1686630;85;21180;-85
2021/01/23 11:10:53;;;;;;;27.98;17.17;;;;;;;5.27;67.33;98824.06;1659632;86;21215;-85
2021/01/23 11:13:22;;;;;;;33.70;19.98;;;;;;;5.31;67.02;98810.30;1666039;86;21211;-85
2021/01/23 11:15:50;;;;;;;26.60;17.57;;;;;;;5.41;67.08;98806.15;1673575;85;21715;-85
2021/01/23 11:18:17;;;;;;;29.42;19.30;;;;;;;5.59;66.61;98809.36;1686681;85;21195;-85
2021/01/23 11:20:44;;;;;;;32.05;19.77;;;;;;;5.56;66.23;98808.23;1689155;84;21164;-85
2021/01/23 11:23:12;;;;;;;33.42;20.23;;;;;;;5.49;66.65;98803.03;1667594;84;21179;-85
2021/01/23 11:25:39;;;;;;;33.85;20.75;;;;;;;5.47;66.93;98808.35;1670933;84;21175;-85
2021/01/23 11:28:06;;;;;;;29.55;17.95;;;;;;;5.48;66.82;98806.59;1663662;84;21179;-84
2021/01/23 11:30:35;;;;;;;31.55;20.00;;;;;;;5.53;66.50;98805.34;1661501;86;21223;-85
2021/01/23 11:33:02;;;;;;;28.70;18.67;;;;;;;5.69;66.38;98799.95;1649369;85;21208;-84
2021/01/23 11:35:29;;;;;;;28.73;18.77;;;;;;;5.68;66.28;98800.89;1659791;86;21188;-84
2021/01/23 11:38:00;;;;;;;29.42;18.67;;;;;;;5.65;66.48;98811.59;1644808;87;21212;-85
2021/01/23 11:40:26;;;;;;;30.72;20.10;;;;;;;5.60;66.47;98809.74;1660434;86;21152;-83
2021/01/23 11:42:54;;;;;;;30.57;19.07;;;;;;;5.60;66.46;98817.61;1671511;85;21180;-83
2021/01/23 11:45:22;;;;;;;31.52;19.82;;;;;;;5.55;66.20;98820.97;1669238;86;21196;-83
2021/01/23 11:47:49;;;;;;;28.35;17.42;;;;;;;5.62;66.10;98822.27;1671502;86;21236;-84
2021/01/23 11:50:16;;;;;;;28.67;19.02;;;;;;;5.63;65.75;98828.38;1671771;85;21180;-84
2021/01/23 11:52:44;;;;;;;29.20;17.37;;;;;;;5.49;66.06;98821.39;1671725;85;21636;-85
2021/01/23 11:55:11;;;;;;;30.43;19.05;;;;;;;5.35;66.31;98819.65;1669113;86;21244;-84
2021/01/23 11:57:38;;;;;;;86.22;35.08;;;;;;;5.19;66.77;98815.83;1669420;85;21212;-84
2021/01/23 12:00:08;;;;;;;28.07;19.05;;;;;;;5.07;66.98;98816.97;1660421;86;21248;-83
2021/01/23 12:02:42;;;;;;;31.00;18.77;;;;;;;5.11;67.13;98814.17;1660576;86;21170;-83
2021/01/23 12:05:10;;;;;;;28.42;18.15;;;;;;;5.00;67.33;98818.31;1649807;86;21383;-84
2021/01/23 12:07:38;;;;;;;27.58;17.87;;;;;;;4.88;67.91;98813.82;1644446;87;21192;-84
2021/01/23 12:10:06;;;;;;;31.15;18.00;;;;;;;4.87;68.13;98817.38;1644248;86;21184;-84
2021/01/23 12:12:36;;;;;;;28.60;17.60;;;;;;;4.88;68.02;98821.68;1644406;86;21156;-83
2021/01/23 12:15:06;;;;;;;28.83;17.27;;;;;;;5.00;67.85;98824.86;1661478;85;21183;-83
2021/01/23 12:17:35;;;;;;;32.63;18.48;;;;;;;4.99;67.80;98821.86;1655800;85;22114;-83
2021/01/23 12:20:08;;;;;;;28.52;18.07;;;;;;;4.90;67.98;98840.78;1646934;87;21176;-84
2021/01/23 12:22:35;;;;;;;27.30;16.27;;;;;;;4.80;68.43;98837.05;1646725;87;21663;-84
2021/01/23 12:25:08;;;;;;;28.35;17.37;;;;;;;4.79;68.56;98837.97;1662867;86;22224;-83
2021/01/23 12:27:36;;;;;;;28.05;17.17;;;;;;;4.85;68.28;98832.36;1659919;86;21196;-85
2021/01/23 12:30:08;;;;;;;39.05;24.18;;;;;;;4.76;68.47;98834.59;1644492;87;21375;-83
2021/01/23 12:32:36;;;;;;;30.05;18.25;;;;;;;4.64;68.77;98827.47;1644024;86;21821;-83
2021/01/23 12:35:06;;;;;;;27.22;16.17;;;;;;;4.50;69.14;98839.25;1644319;87;21577;-83
2021/01/23 12:37:34;;;;;;;37.23;20.92;;;;;;;4.46;69.29;98837.28;1652873;86;21207;-84
2021/01/23 12:40:04;;;;;;;29.77;17.15;;;;;;;4.45;69.35;98841.30;1668132;85;21228;-85
2021/01/23 12:42:32;;;;;;;29.48;18.48;;;;;;;4.28;69.76;98836.60;1659880;86;21584;-86
2021/01/23 12:44:59;;;;;;;27.13;17.20;;;;;;;4.15;70.21;98836.97;1660463;86;21184;-85
2021/01/23 12:47:28;;;;;;;29.77;17.62;;;;;;;4.09;70.50;98856.02;1658422;85;21208;-85
2021/01/23 12:49:55;;;;;;;29.63;17.73;;;;;;;4.21;70.41;98864.09;1660287;86;21209;-84
2021/01/23 12:52:25;;;;;;;27.77;16.48;;;;;;;4.19;70.34;98858.92;1660728;86;21699;-85
2021/01/23 12:54:53;;;;;;;31.93;18.42;;;;;;;4.06;70.53;98870.56;1661133;85;21188;-86
2021/01/23 12:57:20;;;;;;;32.00;18.35;;;;;;;3.90;70.87;98868.45;1657046;85;21293;-85
2021/01/23 12:59:48;;;;;;;30.23;16.55;;;;;;;3.89;70.94;98862.86;1649919;85;21318;-89
2021/01/23 13:02:15;;;;;;;31.45;18.67;;;;;;;3.72;71.12;98854.64;1644556;87;21223;-85
2021/01/23 13:04:43;;;;;;;29.35;16.37;;;;;;;3.51;71.67;98861.94;1644761;86;21182;-85
2021/01/23 13:07:10;;;;;;;33.40;18.60;;;;;;;3.29;72.18;98857.89;1644089;87;21188;-85
2021/01/23 13:09:38;;;;;;;32.65;17.57;;;;;;;3.17;72.47;98857.23;1649178;84;21207;-86
2021/01/23 13:12:07;;;;;;;33.95;18.32;;;;;;;2.98;72.99;98851.72;1686453;84;21151;-80
2021/01/23 13:14:34;;;;;;;33.18;18.48;;;;;;;2.75;74.17;98866.83;1691634;84;21610;-86
2021/01/23 13:17:01;;;;;;;32.73;18.23;;;;;;;2.68;74.68;98860.23;1705927;84;21682;-82
2021/01/23 13:19:30;;;;;;;32.50;18.23;;;;;;;2.68;74.52;98862.84;1669920;85;21644;-82
2021/01/23 13:21:57;;;;;;;35.35;19.73;;;;;;;2.52;75.00;98864.55;1679972;84;21230;-83
2021/01/23 13:24:25;;;;;;;28.52;15.60;;;;;;;2.32;75.58;98857.28;1690373;83;21172;-82
2021/01/23 13:26:52;;;;;;;39.42;21.48;;;;;;;2.35;75.79;98868.03;1667038;86;21222;-82
2021/01/23 13:29:19;;;;;;;40.58;21.48;;;;;;;2.39;75.72;98866.95;1683581;84;21195;-81
2021/01/23 13:31:47;;;;;;;34.23;18.87;;;;;;;2.31;76.08;98862.12;1685349;84;21187;-81
2021/01/23 13:34:15;;;;;;;30.72;18.57;;;;;;;2.21;76.30;98859.59;1691078;83;21179;-83
2021/01/23 13:36:42;;;;;;;30.00;18.17;;;;;;;2.18;76.47;98855.84;1687552;84;21622;-81
2021/01/23 13:39:10;;;;;;;34.58;19.32;;;;;;;2.19;76.45;98863.59;1684347;84;21195;-81
2021/01/23 13:41:37;;;;;;;31.40;17.70;;;;;;;2.01;77.00;98857.97;1632838;86;21192;-81
2021/01/23 13:44:05;;;;;;;33.25;17.57;;;;;;;1.84;77.53;98857.50;1672563;85;21206;-81
2021/01/23 13:46:32;;;;;;;34.30;18.10;;;;;;;1.85;77.89;98848.77;1686148;84;21785;-81
2021/01/23 13:49:00;;;;;;;36.68;21.05;;;;;;;1.70;78.37;98848.60;1686011;83;22433;-80
2021/01/23 13:51:30;;;;;;;35.65;18.10;;;;;;;1.51;79.02;98847.78;1676145;84;21171;-81
2021/01/23 13:53:57;;;;;;;41.00;22.75;;;;;;;1.53;79.34;98852.47;1633548;86;21179;-81
2021/01/23 13:56:25;;;;;;;37.00;21.27;;;;;;;1.46;79.53;98856.66;1661116;86;21702;-82
2021/01/23 13:58:52;;;;;;;37.90;20.97;;;;;;;1.34;80.03;98858.53;1662723;85;21711;-81
2021/01/23 14:01:19;;;;;;;37.50;19.92;;;;;;;1.32;80.12;98869.50;1695721;84;21191;-82
2021/01/23 14:03:47;;;;;;;36.58;19.82;;;;;;;1.45;79.86;98861.48;1663360;84;21683;-83
2021/01/23 14:06:17;;;;;;;35.98;18.75;;;;;;;1.45;80.03;98852.36;1685636;83;21599;-82
2021/01/23 14:08:44;;;;;;;38.48;19.30;;;;;;;1.38;80.22;98856.63;1686746;84;21152;-82
2021/01/23 14:11:13;;;;;;;41.28;21.65;;;;;;;1.34;80.55;98853.32;1676174;84;21156;-82
2021/01/23 14:13:41;;;;;;;41.15;23.07;;;;;;;1.40;80.46;98858.25;1672365;84;21143;-81
2021/01/23 14:16:08;;;;;;;39.70;19.77;;;;;;;1.27;80.65;98853.24;1657328;86;21224;-82
2021/01/23 14:18:35;;;;;;;35.17;19.05;;;;;;;1.12;81.08;98851.71;1691664;83;21213;-82
2021/01/23 14:21:04;;;;;;;38.25;19.82;;;;;;;1.18;81.19;98858.86;1687282;83;21207;-80
2021/01/23 14:23:31;;;;;;;33.70;18.67;;;;;;;1.22;81.03;98855.22;1674426;84;21195;-81
2021/01/23 14:26:00;;;;;;;33.63;17.87;;;;;;;1.09;81.40;98858.84;1693756;83;21139;-82
2021/01/23 14:28:28;;;;;;;32.23;18.07;;;;;;;1.02;81.64;98851.75;1635281;86;21152;-81
2021/01/23 14:30:55;;;;;;;33.95;17.95;;;;;;;1.13;81.50;98858.61;1688345;85;21636;-83
2021/01/23 14:33:22;;;;;;;35.10;19.57;;;;;;;1.09;81.59;98855.77;1681420;84;21158;-82
2021/01/23 14:35:51;;;;;;;29.50;16.80;;;;;;;0.93;82.10;98853.47;1688162;84;21600;-80
2021/01/23 14:38:18;;;;;;;34.15;17.55;;;;;;;0.84;82.57;98865.14;1688351;84;21329;-77
2021/01/23 14:40:47;;;;;;;42.10;21.73;;;;;;;0.92;83.30;98855.69;1676812;84;21187;-89
2021/01/23 14:43:14;;;;;;;59.10;28.50;;;;;;;0.92;83.26;98853.08;1680411;84;21603;-88
2021/01/23 14:45:41;;;;;;;26.93;15.38;;;;;;;0.85;83.17;98856.89;1686115;84;21178;-85
2021/01/23 14:48:09;;;;;;;31.73;15.78;;;;;;;0.90;82.93;98861.44;1679817;83;21180;-86
2021/01/23 14:50:37;;;;;;;27.77;14.30;;;;;;;0.74;83.21;98853.02;1679816;83;21168;-86
2021/01/23 14:53:04;;;;;;;33.95;19.15;;;;;;;0.66;83.48;98862.90;1681219;84;21298;-87
2021/01/23 14:55:31;;;;;;;35.03;19.27;;;;;;;0.76;83.28;98859.45;1679408;83;21223;-87
2021/01/23 14:57:59;;;;;;;33.65;16.73;;;;;;;0.74;83.43;98871.23;1695005;83;21159;-87
2021/01/23 15:00:26;;;;;;;41.75;22.20;;;;;;;0.70;83.59;98876.16;1696688;83;21635;-87
2021/01/23 15:02:54;;;;;;;66.95;32.13;;;;;;;0.76;83.52;98860.28;1673822;85;21182;-87
2021/01/23 15:05:22;;;;;;;43.65;20.17;;;;;;;0.85;83.24;98867.30;1680882;83;21175;-87
2021/01/23 15:07:49;;;;;;;40.65;19.65;;;;;;;0.77;83.47;98856.77;1661833;86;21199;-87
2021/01/23 15:10:17;;;;;;;33.48;17.75;;;;;;;0.70;83.66;98851.44;1665228;83;21214;-86
2021/01/23 15:12:45;;;;;;;31.68;16.45;;;;;;;0.76;83.57;98871.16;1661445;86;21238;-87
2021/01/23 15:15:13;;;;;;;27.25;13.50;;;;;;;0.81;83.38;98855.71;1661562;86;21204;-86
2021/01/23 15:17:40;;;;;;;31.60;16.90;;;;;;;0.77;83.55;98855.47;1661879;84;21187;-86
2021/01/23 15:20:09;;;;;;;28.67;13.80;;;;;;;0.64;83.82;98862.14;1661546;86;21643;-91
2021/01/23 15:22:37;;;;;;;28.98;15.08;;;;;;;0.70;83.91;98855.34;1675847;85;21790;-86
2021/01/23 15:25:06;;;;;;;32.30;16.02;;;;;;;0.60;83.97;98856.66;1633549;88;21216;-86
2021/01/23 15:27:33;;;;;;;43.90;23.07;;;;;;;0.51;84.34;98854.47;1687063;83;21595;-86
2021/01/23 15:30:01;;;;;;;44.67;21.75;;;;;;;0.63;84.25;98857.84;1675524;86;21196;-83
2021/01/23 15:32:29;;;;;;;36.88;19.67;;;;;;;0.62;84.26;98853.55;1675602;86;21227;-85
2021/01/23 15:34:57;;;;;;;32.70;15.75;;;;;;;0.53;84.52;98844.38;1678280;85;21191;-85
2021/01/23 15:37:24;;;;;;;28.12;12.35;;;;;;;0.57;84.55;98856.34;1678642;85;21177;-85
2021/01/23 15:39:51;;;;;;;32.25;16.35;;;;;;;0.59;84.48;98847.16;1646670;87;21960;-85
2021/01/23 15:42:19;;;;;;;28.32;14.70;;;;;;;0.47;84.79;98853.31;1646916;87;21175;-85
2021/01/23 15:44:46;;;;;;;29.25;14.75;;;;;;;0.41;85.04;98860.08;1647565;86;21340;-85
2021/01/23 15:47:14;;;;;;;31.82;15.63;;;;;;;0.53;84.80;98860.46;1644882;86;21203;-85
2021/01/23 15:49:42;;;;;;;29.05;13.88;;;;;;;0.52;84.94;98840.08;1644679;86;21359;-85
2021/01/23 15:52:09;;;;;;;36.50;18.05;;;;;;;0.44;85.20;98857.33;1633535;86;21180;-85
2021/01/23 15:54:37;;;;;;;46.20;20.30;;;;;;;0.48;85.09;98854.98;1693562;85;21187;-85
2021/01/23 15:57:05;;;;;;;37.25;17.57;;;;;;;0.61;84.96;98855.75;1632752;88;21213;-85
2021/01/23 15:59:32;;;;;;;59.38;23.85;;;;;;;0.57;85.05;98858.94;1674266;84;21155;-85
2021/01/23 16:02:00;;;;;;;42.90;18.00;;;;;;;0.51;85.23;98847.96;1686269;84;21187;-86
2021/01/23 16:04:28;;;;;;;75.80;30.02;;;;;;;0.54;85.21;98854.32;1689202;85;21164;-86
2021/01/23 16:06:55;;;;;;;80.45;28.52;;;;;;;0.57;84.98;98849.83;1687408;85;21187;-86
2021/01/23 16:09:24;;;;;;;32.80;16.12;;;;;;;0.54;85.30;98853.02;1691594;84;21643;-85
2021/01/23 16:11:52;;;;;;;58.58;22.73;;;;;;;0.55;85.34;98854.72;1686403;84;21226;-87
2021/01/23 16:14:19;;;;;;;99.22;36.10;;;;;;;0.66;85.05;98856.39;1671200;84;21203;-81
2021/01/23 16:16:47;;;;;;;74.87;28.10;;;;;;;0.74;85.45;98847.81;1686142;83;21233;-87
2021/01/23 16:19:15;;;;;;;68.62;30.12;;;;;;;0.69;85.52;98845.00;1689542;84;21710;-82
2021/01/23 16:21:42;;;;;;;38.53;18.05;;;;;;;0.72;85.28;98843.12;1689272;84;21587;-84
2021/01/23 16:24:10;;;;;;;36.42;14.80;;;;;;;0.77;84.97;98848.95;1687104;85;21175;-84
2021/01/23 16:26:37;;;;;;;31.75;16.82;;;;;;;0.66;85.14;98849.89;1672769;85;21195;-84
2021/01/23 16:29:05;;;;;;;31.15;15.20;;;;;;;0.60;85.17;98847.55;1677621;84;21151;-84
2021/01/23 16:31:32;;;;;;;31.07;14.90;;;;;;;0.64;84.95;98851.73;1671900;84;21133;-83
2021/01/23 16:33:59;;;;;;;28.00;14.73;;;;;;;0.55;85.16;98849.51;1668743;84;21242;-83
2021/01/23 16:36:27;;;;;;;27.85;15.80;;;;;;;0.46;85.49;98856.82;1668854;84;21476;-83
2021/01/23 16:38:54;;;;;;;34.70;16.80;;;;;;;0.55;85.31;98849.51;1681378;84;21151;-83
2021/01/23 16:41:21;;;;;;;33.73;17.20;;;;;;;0.65;85.11;98852.96;1690493;84;21187;-84
2021/01/23 16:43:48;;;;;;;32.53;15.10;;;;;;;0.59;85.23;98857.13;1680108;84;21167;-84
2021/01/23 16:46:16;;;;;;;34.78;17.42;;;;;;;0.55;85.34;98853.41;1678947;84;21619;-84
2021/01/23 16:48:43;;;;;;;31.55;14.43;;;;;;;0.63;85.15;98850.04;1676740;84;21654;-87
2021/01/23 16:51:11;;;;;;;33.63;16.48;;;;;;;0.60;85.26;98850.16;1690121;84;21699;-84
2021/01/23 16:53:38;;;;;;;31.35;14.18;;;;;;;0.52;85.49;98850.48;1693334;84;21564;-84
2021/01/23 16:56:06;;;;;;;30.25;16.27;;;;;;;0.52;85.45;98837.95;1687485;85;21230;-85
2021/01/23 16:58:34;;;;;;;38.05;18.40;;;;;;;0.58;85.19;98832.02;1685509;85;21215;-79
2021/01/23 17:01:01;;;;;;;34.35;17.65;;;;;;;0.52;85.39;98832.75;1647628;85;21314;-82
2021/01/23 17:03:28;;;;;;;27.50;14.00;;;;;;;0.48;85.62;98825.53;1652696;85;21299;-82
2021/01/23 17:05:57;;;;;;;36.30;17.00;;;;;;;0.58;85.36;98829.88;1646247;85;21329;-82
2021/01/23 17:08:30;;;;;;;50.35;18.82;;;;;;;0.57;85.25;98832.92;1652894;84;21203;-82
2021/01/23 17:10:58;;;;;;;88.15;31.33;;;;;;;0.42;85.58;98837.05;1682255;84;21195;-81
2021/01/23 17:13:25;;;;;;;54.85;24.00;;;;;;;0.43;85.64;98843.09;1688068;85;21490;-81
2021/01/23 17:15:54;;;;;;;49.98;21.50;;;;;;;0.48;85.50;98844.56;1683333;84;21631;-82
2021/01/23 17:18:22;;;;;;;46.25;18.05;;;;;;;0.49;85.68;98837.63;1693093;84;22090;-83
2021/01/23 17:20:50;;;;;;;43.40;18.75;;;;;;;0.46;85.83;98845.11;1675197;85;21647;-83
2021/01/23 17:23:17;;;;;;;25.55;12.80;;;;;;;0.53;85.69;98830.54;1688583;85;21415;-81
2021/01/23 17:25:45;;;;;;;36.68;15.63;;;;;;;0.53;85.52;98839.64;1683803;84;21194;-80
2021/01/23 17:28:12;;;;;;;28.05;12.58;;;;;;;0.40;85.87;98845.38;1676830;84;21211;-81
2021/01/23 17:30:39;;;;;;;30.45;15.45;;;;;;;0.48;85.85;98832.03;1685382;83;21196;-81
2021/01/23 17:33:08;;;;;;;49.40;21.10;;;;;;;0.47;85.70;98828.59;1682668;85;21270;-81
2021/01/23 17:35:36;;;;;;;46.40;19.50;;;;;;;0.40;85.92;98821.96;1672344;86;21172;-81
2021/01/23 17:38:05;;;;;;;65.03;29.40;;;;;;;0.52;85.90;98808.86;1667687;84;21212;-81
2021/01/23 17:40:33;;;;;;;36.08;17.70;;;;;;;0.60;85.57;98818.49;1664812;86;21175;-82
2021/01/23 17:43:00;;;;;;;34.85;17.40;;;;;;;0.49;85.82;98802.04;1661363;84;21287;-80
2021/01/23 17:45:27;;;;;;;35.05;17.67;;;;;;;0.53;85.86;98821.44;1677460;85;21195;-82
2021/01/23 17:47:54;;;;;;;34.30;17.73;;;;;;;0.62;85.58;98813.22;1662282;86;21156;-80
2021/01/23 17:50:23;;;;;;;25.95;13.05;;;;;;;0.64;85.60;98829.61;1672300;85;21178;-80
2021/01/23 17:52:50;;;;;;;21.65;11.38;;;;;;;0.61;85.77;98823.23;1668601;86;21712;-81
2021/01/23 17:55:18;;;;;;;22.82;12.58;;;;;;;0.62;85.78;98822.32;1671377;86;21188;-80
2021/01/23 17:57:46;;;;;;;34.55;16.30;;;;;;;0.76;85.37;98816.03;1668170;85;21184;-80
2021/01/23 18:00:15;;;;;;;26.73;14.55;;;;;;;0.72;85.43;98813.66;1672967;85;21183;-79
2021/01/23 18:02:43;;;;;;;20.88;11.45;;;;;;;0.67;85.58;98802.14;1656631;84;21195;-80
2021/01/23 18:05:11;;;;;;;24.02;12.63;;;;;;;0.68;85.52;98806.44;1706852;84;21214;-81
2021/01/23 18:07:38;;;;;;;21.90;12.03;;;;;;;0.75;85.28;98804.39;1691463;84;21314;-80
2021/01/23 18:10:08;;;;;;;24.67;13.50;;;;;;;0.68;85.41;98811.64;1676369;85;21337;-79
2021/01/23 18:12:35;;;;;;;21.60;11.18;;;;;;;0.55;85.71;98810.48;1685397;85;21325;-79
2021/01/23 18:15:05;;;;;;;24.82;12.47;;;;;;;0.62;85.74;98809.31;1656691;86;21187;-78
2021/01/23 18:17:33;;;;;;;26.50;14.05;;;;;;;0.61;85.64;98816.72;1667808;85;21248;-78
2021/01/23 18:20:00;;;;;;;23.00;13.18;;;;;;;0.52;85.90;98827.08;1642670;86;21199;-79
2021/01/23 18:22:28;;;;;;;20.43;11.35;;;;;;;0.56;86.01;98818.69;1632489;86;21204;-79
2021/01/23 18:24:55;;;;;;;20.57;11.03;;;;;;;0.67;85.81;98816.92;1647624;86;21144;-78
2021/01/23 18:27:22;;;;;;;21.12;11.38;;;;;;;0.63;85.88;98812.30;1644605;86;21226;-78
2021/01/23 18:29:50;;;;;;;21.33;11.20;;;;;;;0.60;86.07;98826.73;1661423;86;21155;-81
2021/01/23 18:32:17;;;;;;;23.95;12.43;;;;;;;0.75;85.75;98818.24;1665939;85;22216;-81
2021/01/23 18:34:45;;;;;;;23.87;12.28;;;;;;;0.75;85.81;98818.24;1661700;85;21199;-81
2021/01/23 18:37:13;;;;;;;21.45;11.93;;;;;;;0.66;86.09;98826.47;1663774;86;21942;-80
2021/01/23 18:39:40;;;;;;;24.87;13.53;;;;;;;0.78;85.99;98827.23;1674447;85;21191;-81
2021/01/23 18:42:08;;;;;;;29.98;12.58;;;;;;;0.85;85.78;98825.66;1677140;85;21220;-81
2021/01/23 18:44:36;;;;;;;21.30;11.60;;;;;;;0.77;86.03;98824.70;1670368;85;21200;-81
2021/01/23 18:47:04;;;;;;;21.40;11.53;;;;;;;0.77;86.12;98816.42;1670889;86;21217;-81
2021/01/23 18:49:32;;;;;;;24.95;12.85;;;;;;;0.88;85.96;98821.59;1666916;86;21180;-82
2021/01/23 18:52:00;;;;;;;46.80;24.18;;;;;;;0.81;86.10;98824.95;1660185;86;21614;-83
2021/01/23 18:54:27;;;;;;;22.75;12.15;;;;;;;0.80;86.30;98820.65;1663714;86;21200;-82
2021/01/23 18:56:55;;;;;;;21.80;11.93;;;;;;;0.93;86.07;98820.50;1666571;86;21144;-82
2021/01/23 18:59:22;;;;;;;26.07;14.13;;;;;;;0.93;86.03;98824.40;1680542;85;21200;-80
2021/01/23 19:01:49;;;;;;;21.15;12.10;;;;;;;0.86;86.31;98809.96;1672542;86;21219;-79
2021/01/23 19:04:18;;;;;;;27.65;13.85;;;;;;;0.99;86.21;98814.14;1648184;86;21177;-80
2021/01/23 19:06:47;;;;;;;33.40;15.98;;;;;;;1.09;85.92;98795.88;1648848;86;21196;-80
2021/01/23 19:09:15;;;;;;;25.35;11.85;;;;;;;1.03;86.07;98797.46;1672373;85;21170;-77
2021/01/23 19:11:42;;;;;;;24.25;12.73;;;;;;;0.92;86.36;98788.00;1675456;85;21151;-79
2021/01/23 19:14:09;;;;;;;23.65;12.82;;;;;;;0.95;86.29;98793.08;1681915;85;21240;-79
2021/01/23 19:16:37;;;;;;;27.52;15.65;;;;;;;1.04;86.13;98791.81;1676046;85;21125;-79
2021/01/23 19:19:05;;;;;;;23.38;11.33;;;;;;;0.83;86.28;98774.11;1671251;85;21191;-81
2021/01/23 19:21:32;;;;;;;21.65;11.65;;;;;;;0.91;86.54;98799.31;1667132;86;21139;-81
2021/01/23 19:23:59;;;;;;;25.00;14.10;;;;;;;1.00;86.37;98793.70;1643556;86;21191;-79
2021/01/23 19:26:27;;;;;;;21.15;10.30;;;;;;;1.01;86.26;98788.89;1664291;84;21612;-79
2021/01/23 19:28:54;;;;;;;26.33;13.70;;;;;;;0.94;86.52;98780.97;1678545;85;21159;-79
2021/01/23 19:31:24;;;;;;;25.23;13.10;;;;;;;0.96;86.62;98777.85;1670124;85;21175;-81
2021/01/23 19:33:53;;;;;;;29.87;15.40;;;;;;;1.09;86.32;98768.53;1670515;86;21192;-81
2021/01/23 19:36:26;;;;;;;24.70;13.50;;;;;;;1.02;86.45;98767.13;1672432;84;21474;-79
2021/01/23 19:38:54;;;;;;;22.50;13.25;;;;;;;1.05;86.57;98770.05;1687487;83;21192;-89
2021/01/23 19:41:22;;;;;;;21.65;12.15;;;;;;;1.24;86.39;98755.69;1672786;85;21212;-91
2021/01/23 19:43:49;;;;;;;26.73;13.83;;;;;;;1.25;86.41;98761.29;1678261;84;21655;-88
2021/01/23 19:46:16;;;;;;;26.12;14.58;;;;;;;1.16;86.58;98748.72;1677402;84;21607;-88
2021/01/23 19:48:44;;;;;;;39.25;18.62;;;;;;;1.21;86.46;98751.95;1637283;87;21633;-88
2021/01/23 19:51:11;;;;;;;59.05;27.22;;;;;;;1.27;86.11;98754.26;1688651;85;21195;-87
2021/01/23 19:53:40;;;;;;;55.88;25.80;;;;;;;1.23;86.29;98754.00;1681164;85;21175;-78
2021/01/23 19:56:07;;;;;;;25.27;14.15;;;;;;;1.22;86.34;98740.62;1677450;84;21643;-82
2021/01/23 19:58:35;;;;;;;28.55;15.78;;;;;;;1.43;86.36;98730.89;1680503;84;21175;-80
2021/01/23 20:01:02;;;;;;;26.82;12.90;;;;;;;1.38;86.14;98735.48;1706693;83;21180;-82
2021/01/23 20:03:29;;;;;;;23.25;12.28;;;;;;;1.28;86.28;98734.64;1687257;85;21215;-80
2021/01/23 20:05:57;;;;;;;24.35;11.95;;;;;;;1.29;86.13;98731.56;1678343;84;21222;-81
2021/01/23 20:08:24;;;;;;;28.12;14.45;;;;;;;1.28;86.01;98732.03;1669697;84;21203;-80
2021/01/23 20:10:51;;;;;;;27.30;13.35;;;;;;;1.22;86.23;98735.41;1669860;84;21178;-82
2021/01/23 20:13:19;;;;;;;28.38;14.28;;;;;;;1.13;86.54;98730.17;1608159;88;21237;-82
2021/01/23 20:15:46;;;;;;;22.45;11.80;;;;;;;1.18;86.43;98737.31;1646651;86;21184;-82
2021/01/23 20:18:14;;;;;;;25.25;12.45;;;;;;;1.21;86.37;98744.13;1680499;84;21622;-81
2021/01/23 20:20:41;;;;;;;23.50;12.58;;;;;;;1.15;86.61;98728.33;1685545;84;21155;-82
2021/01/23 20:23:08;;;;;;;24.15;13.35;;;;;;;1.10;86.93;98736.37;1681064;85;21160;-84
2021/01/23 20:25:35;;;;;;;24.18;11.65;;;;;;;1.21;86.74;98730.64;1678694;84;21643;-84
2021/01/23 20:28:03;;;;;;;25.00;12.33;;;;;;;1.23;86.74;98727.51;1675789;84;21336;-83
2021/01/23 20:30:30;;;;;;;19.87;11.30;;;;;;;1.14;87.01;98731.40;1684003;84;21191;-84
2021/01/23 20:32:58;;;;;;;22.40;11.93;;;;;;;1.26;86.88;98733.03;1690158;84;21203;-83
2021/01/23 20:35:26;;;;;;;20.90;11.00;;;;;;;1.30;86.80;98718.93;1677037;85;21233;-83
2021/01/23 20:37:53;;;;;;;24.50;11.60;;;;;;;1.26;87.00;98734.33;1664384;84;21191;-83
2021/01/23 20:40:20;;;;;;;22.32;12.20;;;;;;;1.27;87.07;98732.12;1680058;84;21568;-83
2021/01/23 20:42:48;;;;;;;22.62;11.97;;;;;;;1.31;87.00;98721.92;1692394;84;21647;-83
2021/01/23 20:45:17;;;;;;;22.75;10.13;;;;;;;1.24;87.23;98726.59;1706373;84;21175;-84
2021/01/23 20:47:45;;;;;;;24.75;13.10;;;;;;;1.21;87.54;98733.71;1694351;84;21558;-82
2021/01/23 20:50:12;;;;;;;25.30;12.60;;;;;;;1.29;87.42;98726.36;1662245;84;21202;-83